sensor_id;sensor_type;location;lat;lon;timestamp;P1;durP1;ratioP1;P2;durP2;ratioP2
49223;SDS011;35050;51.316;5.994;2024-03-02T00:00:42;3.38;;;0.90;;
49223;SDS011;35050;51.316;5.994;2024-03-02T00:03:11;2.13;;;1.17;;
49223;SDS011;35050;51.316;5.994;2024-03-02T00:05:39;2.65;;;0.90;;
49223;SDS011;35050;51.316;5.994;2024-03-02T00:08:05;4.38;;;0.90;;
49223;SDS011;35050;51.316;5.994;2024-03-02T00:10:39;3.40;;;1.17;;
49223;SDS011;35050;51.316;5.994;2024-03-02T00:13:05;1.25;;;0.93;;
49223;SDS011;35050;51.316;5.994;2024-03-02T00:18:12;1.75;;;1.15;;
49223;SDS011;35050;51.316;5.994;2024-03-02T00:21:05;3.75;;;1.10;;
49223;SDS011;35050;51.316;5.994;2024-03-02T00:23:34;2.17;;;1.10;;
49223;SDS011;35050;51.316;5.994;2024-03-02T00:26:00;1.30;;;0.60;;
49223;SDS011;35050;51.316;5.994;2024-03-02T00:31:08;3.03;;;0.90;;
49223;SDS011;35050;51.316;5.994;2024-03-02T00:33:45;4.78;;;1.48;;
49223;SDS011;35050;51.316;5.994;2024-03-02T00:36:12;3.20;;;0.80;;
49223;SDS011;35050;51.316;5.994;2024-03-02T00:38:47;4.32;;;1.65;;
49223;SDS011;35050;51.316;5.994;2024-03-02T00:41:21;3.22;;;1.08;;
49223;SDS011;35050;51.316;5.994;2024-03-02T00:46:22;2.75;;;0.98;;
49223;SDS011;35050;51.316;5.994;2024-03-02T00:51:24;3.38;;;1.10;;
49223;SDS011;35050;51.316;5.994;2024-03-02T00:53:54;2.95;;;0.95;;
49223;SDS011;35050;51.316;5.994;2024-03-02T00:56:21;3.78;;;0.90;;
49223;SDS011;35050;51.316;5.994;2024-03-02T00:58:49;2.72;;;1.10;;
49223;SDS011;35050;51.316;5.994;2024-03-02T01:01:15;2.92;;;0.93;;
49223;SDS011;35050;51.316;5.994;2024-03-02T01:03:41;3.47;;;1.33;;
49223;SDS011;35050;51.316;5.994;2024-03-02T01:06:07;3.42;;;1.02;;
49223;SDS011;35050;51.316;5.994;2024-03-02T01:08:34;3.42;;;0.90;;
49223;SDS011;35050;51.316;5.994;2024-03-02T01:11:03;2.35;;;1.20;;
49223;SDS011;35050;51.316;5.994;2024-03-02T01:13:29;2.13;;;1.10;;
49223;SDS011;35050;51.316;5.994;2024-03-02T01:15:55;1.27;;;0.98;;
49223;SDS011;35050;51.316;5.994;2024-03-02T01:18:21;1.73;;;0.68;;
49223;SDS011;35050;51.316;5.994;2024-03-02T01:20:47;1.80;;;0.80;;
49223;SDS011;35050;51.316;5.994;2024-03-02T01:23:13;1.50;;;0.57;;
49223;SDS011;35050;51.316;5.994;2024-03-02T01:25:39;0.38;;;0.20;;
49223;SDS011;35050;51.316;5.994;2024-03-02T01:28:05;0.95;;;0.40;;
49223;SDS011;35050;51.316;5.994;2024-03-02T01:30:31;0.75;;;0.43;;
49223;SDS011;35050;51.316;5.994;2024-03-02T01:32:56;1.90;;;0.25;;
49223;SDS011;35050;51.316;5.994;2024-03-02T01:35:24;0.20;;;0.20;;
49223;SDS011;35050;51.316;5.994;2024-03-02T01:37:50;0.38;;;0.20;;
49223;SDS011;35050;51.316;5.994;2024-03-02T01:40:15;1.17;;;0.20;;
49223;SDS011;35050;51.316;5.994;2024-03-02T01:42:41;0.50;;;0.30;;
49223;SDS011;35050;51.316;5.994;2024-03-02T01:45:08;0.35;;;0.20;;
49223;SDS011;35050;51.316;5.994;2024-03-02T01:47:34;0.38;;;0.20;;
49223;SDS011;35050;51.316;5.994;2024-03-02T01:50:00;0.55;;;0.17;;
49223;SDS011;35050;51.316;5.994;2024-03-02T01:52:26;1.27;;;0.20;;
49223;SDS011;35050;51.316;5.994;2024-03-02T01:54:52;0.30;;;0.20;;
49223;SDS011;35050;51.316;5.994;2024-03-02T01:57:18;0.30;;;0.20;;
49223;SDS011;35050;51.316;5.994;2024-03-02T01:59:47;0.70;;;0.15;;
49223;SDS011;35050;51.316;5.994;2024-03-02T02:02:14;1.05;;;0.40;;
49223;SDS011;35050;51.316;5.994;2024-03-02T02:04:40;0.80;;;0.50;;
49223;SDS011;35050;51.316;5.994;2024-03-02T02:07:06;0.40;;;0.20;;
49223;SDS011;35050;51.316;5.994;2024-03-02T02:09:31;0.50;;;0.30;;
49223;SDS011;35050;51.316;5.994;2024-03-02T02:11:57;0.80;;;0.30;;
49223;SDS011;35050;51.316;5.994;2024-03-02T02:14:23;0.13;;;0.13;;
49223;SDS011;35050;51.316;5.994;2024-03-02T02:16:49;0.35;;;0.30;;
49223;SDS011;35050;51.316;5.994;2024-03-02T02:19:17;1.30;;;0.30;;
49223;SDS011;35050;51.316;5.994;2024-03-02T02:21:43;0.30;;;0.15;;
49223;SDS011;35050;51.316;5.994;2024-03-02T02:24:11;0.73;;;0.35;;
49223;SDS011;35050;51.316;5.994;2024-03-02T02:26:38;0.47;;;0.20;;
49223;SDS011;35050;51.316;5.994;2024-03-02T02:29:04;1.30;;;0.30;;
49223;SDS011;35050;51.316;5.994;2024-03-02T02:31:39;0.28;;;0.15;;
49223;SDS011;35050;51.316;5.994;2024-03-02T02:34:05;0.20;;;0.17;;
49223;SDS011;35050;51.316;5.994;2024-03-02T02:36:34;0.20;;;0.20;;
49223;SDS011;35050;51.316;5.994;2024-03-02T02:39:03;0.45;;;0.30;;
49223;SDS011;35050;51.316;5.994;2024-03-02T02:41:34;0.70;;;0.30;;
49223;SDS011;35050;51.316;5.994;2024-03-02T02:44:00;0.20;;;0.20;;
49223;SDS011;35050;51.316;5.994;2024-03-02T02:46:25;0.43;;;0.40;;
49223;SDS011;35050;51.316;5.994;2024-03-02T02:48:51;0.10;;;0.10;;
49223;SDS011;35050;51.316;5.994;2024-03-02T02:51:18;0.73;;;0.30;;
49223;SDS011;35050;51.316;5.994;2024-03-02T02:53:43;4.55;;;0.30;;
49223;SDS011;35050;51.316;5.994;2024-03-02T02:56:09;0.20;;;0.20;;
49223;SDS011;35050;51.316;5.994;2024-03-02T02:58:36;2.20;;;0.43;;
49223;SDS011;35050;51.316;5.994;2024-03-02T03:01:02;0.30;;;0.30;;
49223;SDS011;35050;51.316;5.994;2024-03-02T03:03:28;0.93;;;0.30;;
49223;SDS011;35050;51.316;5.994;2024-03-02T03:05:55;0.88;;;0.30;;
49223;SDS011;35050;51.316;5.994;2024-03-02T03:08:20;2.20;;;0.68;;
49223;SDS011;35050;51.316;5.994;2024-03-02T03:10:48;2.00;;;0.38;;
49223;SDS011;35050;51.316;5.994;2024-03-02T03:13:14;0.40;;;0.20;;
49223;SDS011;35050;51.316;5.994;2024-03-02T03:15:40;3.13;;;0.40;;
49223;SDS011;35050;51.316;5.994;2024-03-02T03:18:06;0.30;;;0.20;;
49223;SDS011;35050;51.316;5.994;2024-03-02T03:20:32;1.33;;;0.63;;
49223;SDS011;35050;51.316;5.994;2024-03-02T03:22:59;1.30;;;0.32;;
49223;SDS011;35050;51.316;5.994;2024-03-02T03:25:26;0.50;;;0.20;;
49223;SDS011;35050;51.316;5.994;2024-03-02T03:27:54;0.70;;;0.30;;
49223;SDS011;35050;51.316;5.994;2024-03-02T03:30:23;0.32;;;0.20;;
49223;SDS011;35050;51.316;5.994;2024-03-02T03:32:49;0.30;;;0.25;;
49223;SDS011;35050;51.316;5.994;2024-03-02T03:35:23;0.75;;;0.30;;
49223;SDS011;35050;51.316;5.994;2024-03-02T03:37:52;0.65;;;0.20;;
49223;SDS011;35050;51.316;5.994;2024-03-02T03:40:17;0.30;;;0.10;;
49223;SDS011;35050;51.316;5.994;2024-03-02T03:42:46;0.57;;;0.30;;
49223;SDS011;35050;51.316;5.994;2024-03-02T03:45:13;1.65;;;0.30;;
49223;SDS011;35050;51.316;5.994;2024-03-02T03:47:40;1.23;;;0.35;;
49223;SDS011;35050;51.316;5.994;2024-03-02T03:50:05;1.50;;;0.30;;
49223;SDS011;35050;51.316;5.994;2024-03-02T03:52:35;0.75;;;0.30;;
49223;SDS011;35050;51.316;5.994;2024-03-02T03:55:00;0.20;;;0.17;;
49223;SDS011;35050;51.316;5.994;2024-03-02T03:57:26;0.40;;;0.20;;
49223;SDS011;35050;51.316;5.994;2024-03-02T03:59:52;1.65;;;0.30;;
49223;SDS011;35050;51.316;5.994;2024-03-02T04:02:18;0.73;;;0.20;;
49223;SDS011;35050;51.316;5.994;2024-03-02T04:04:44;0.20;;;0.20;;
49223;SDS011;35050;51.316;5.994;2024-03-02T04:07:10;0.30;;;0.20;;
49223;SDS011;35050;51.316;5.994;2024-03-02T04:09:35;0.82;;;0.22;;
49223;SDS011;35050;51.316;5.994;2024-03-02T04:12:01;2.05;;;0.30;;
49223;SDS011;35050;51.316;5.994;2024-03-02T04:14:27;0.45;;;0.20;;
49223;SDS011;35050;51.316;5.994;2024-03-02T04:16:52;0.52;;;0.28;;
49223;SDS011;35050;51.316;5.994;2024-03-02T04:19:18;1.65;;;0.28;;
49223;SDS011;35050;51.316;5.994;2024-03-02T04:21:43;1.33;;;0.32;;
49223;SDS011;35050;51.316;5.994;2024-03-02T04:24:09;0.47;;;0.30;;
49223;SDS011;35050;51.316;5.994;2024-03-02T04:26:35;0.20;;;0.20;;
49223;SDS011;35050;51.316;5.994;2024-03-02T04:29:00;0.68;;;0.40;;
49223;SDS011;35050;51.316;5.994;2024-03-02T04:31:29;2.05;;;0.28;;
49223;SDS011;35050;51.316;5.994;2024-03-02T04:33:55;1.27;;;0.30;;
49223;SDS011;35050;51.316;5.994;2024-03-02T04:36:20;0.20;;;0.10;;
49223;SDS011;35050;51.316;5.994;2024-03-02T04:38:46;0.10;;;0.10;;
49223;SDS011;35050;51.316;5.994;2024-03-02T04:41:34;0.65;;;0.10;;
49223;SDS011;35050;51.316;5.994;2024-03-02T04:44:00;0.10;;;0.10;;
49223;SDS011;35050;51.316;5.994;2024-03-02T04:46:25;0.17;;;0.13;;
49223;SDS011;35050;51.316;5.994;2024-03-02T04:48:51;0.63;;;0.20;;
49223;SDS011;35050;51.316;5.994;2024-03-02T04:51:20;0.20;;;0.20;;
49223;SDS011;35050;51.316;5.994;2024-03-02T04:53:46;1.85;;;0.10;;
49223;SDS011;35050;51.316;5.994;2024-03-02T04:56:15;1.95;;;0.38;;
49223;SDS011;35050;51.316;5.994;2024-03-02T04:58:59;0.50;;;0.20;;
49223;SDS011;35050;51.316;5.994;2024-03-02T05:01:27;0.35;;;0.30;;
49223;SDS011;35050;51.316;5.994;2024-03-02T05:03:53;0.88;;;0.40;;
49223;SDS011;35050;51.316;5.994;2024-03-02T05:06:18;1.10;;;0.57;;
49223;SDS011;35050;51.316;5.994;2024-03-02T05:08:47;1.17;;;0.30;;
49223;SDS011;35050;51.316;5.994;2024-03-02T05:11:15;1.65;;;0.40;;
49223;SDS011;35050;51.316;5.994;2024-03-02T05:14:10;0.52;;;0.30;;
49223;SDS011;35050;51.316;5.994;2024-03-02T05:16:35;1.33;;;0.70;;
49223;SDS011;35050;51.316;5.994;2024-03-02T05:19:05;1.08;;;0.60;;
49223;SDS011;35050;51.316;5.994;2024-03-02T05:21:32;1.55;;;0.70;;
49223;SDS011;35050;51.316;5.994;2024-03-02T05:23:58;2.95;;;0.70;;
49223;SDS011;35050;51.316;5.994;2024-03-02T05:26:24;2.20;;;0.82;;
49223;SDS011;35050;51.316;5.994;2024-03-02T05:28:50;1.65;;;0.77;;
49223;SDS011;35050;51.316;5.994;2024-03-02T05:31:15;1.55;;;0.63;;
49223;SDS011;35050;51.316;5.994;2024-03-02T05:33:41;2.35;;;0.60;;
49223;SDS011;35050;51.316;5.994;2024-03-02T05:36:07;1.95;;;0.90;;
49223;SDS011;35050;51.316;5.994;2024-03-02T05:38:36;1.40;;;0.60;;
49223;SDS011;35050;51.316;5.994;2024-03-02T05:41:02;0.95;;;0.60;;
49223;SDS011;35050;51.316;5.994;2024-03-02T05:43:28;2.42;;;0.75;;
49223;SDS011;35050;51.316;5.994;2024-03-02T05:45:54;0.70;;;0.60;;
49223;SDS011;35050;51.316;5.994;2024-03-02T05:48:19;3.60;;;0.77;;
49223;SDS011;35050;51.316;5.994;2024-03-02T05:50:45;1.40;;;0.82;;
49223;SDS011;35050;51.316;5.994;2024-03-02T05:53:11;1.58;;;0.80;;
49223;SDS011;35050;51.316;5.994;2024-03-02T05:55:36;1.30;;;0.68;;
49223;SDS011;35050;51.316;5.994;2024-03-02T05:58:02;2.65;;;0.90;;
49223;SDS011;35050;51.316;5.994;2024-03-02T06:00:47;1.08;;;0.80;;
49223;SDS011;35050;51.316;5.994;2024-03-02T06:03:13;3.17;;;0.88;;
49223;SDS011;35050;51.316;5.994;2024-03-02T06:05:38;1.38;;;0.73;;
49223;SDS011;35050;51.316;5.994;2024-03-02T06:08:05;1.73;;;0.90;;
49223;SDS011;35050;51.316;5.994;2024-03-02T06:10:32;1.77;;;0.90;;
49223;SDS011;35050;51.316;5.994;2024-03-02T06:13:01;1.90;;;0.82;;
49223;SDS011;35050;51.316;5.994;2024-03-02T06:15:44;1.55;;;0.82;;
49223;SDS011;35050;51.316;5.994;2024-03-02T06:18:10;0.80;;;0.60;;
49223;SDS011;35050;51.316;5.994;2024-03-02T06:20:35;0.65;;;0.65;;
49223;SDS011;35050;51.316;5.994;2024-03-02T06:23:03;2.15;;;0.70;;
49223;SDS011;35050;51.316;5.994;2024-03-02T06:25:29;1.25;;;0.70;;
49223;SDS011;35050;51.316;5.994;2024-03-02T06:27:55;1.02;;;0.47;;
49223;SDS011;35050;51.316;5.994;2024-03-02T06:30:22;4.18;;;0.70;;
49223;SDS011;35050;51.316;5.994;2024-03-02T06:32:48;1.52;;;0.60;;
49223;SDS011;35050;51.316;5.994;2024-03-02T06:35:14;1.35;;;0.70;;
49223;SDS011;35050;51.316;5.994;2024-03-02T06:37:43;0.45;;;0.32;;
49223;SDS011;35050;51.316;5.994;2024-03-02T06:40:11;1.45;;;0.60;;
49223;SDS011;35050;51.316;5.994;2024-03-02T06:42:37;1.52;;;0.60;;
49223;SDS011;35050;51.316;5.994;2024-03-02T06:45:03;2.75;;;0.60;;
49223;SDS011;35050;51.316;5.994;2024-03-02T06:47:28;1.05;;;0.40;;
49223;SDS011;35050;51.316;5.994;2024-03-02T06:49:55;0.77;;;0.30;;
49223;SDS011;35050;51.316;5.994;2024-03-02T06:52:22;1.58;;;0.60;;
49223;SDS011;35050;51.316;5.994;2024-03-02T06:54:48;1.00;;;0.45;;
49223;SDS011;35050;51.316;5.994;2024-03-02T06:57:13;1.58;;;0.70;;
49223;SDS011;35050;51.316;5.994;2024-03-02T06:59:42;2.30;;;0.40;;
49223;SDS011;35050;51.316;5.994;2024-03-02T07:02:10;2.83;;;0.60;;
49223;SDS011;35050;51.316;5.994;2024-03-02T07:04:39;0.80;;;0.40;;
49223;SDS011;35050;51.316;5.994;2024-03-02T07:07:04;0.80;;;0.30;;
49223;SDS011;35050;51.316;5.994;2024-03-02T07:09:32;3.22;;;0.52;;
49223;SDS011;35050;51.316;5.994;2024-03-02T07:11:58;2.00;;;0.57;;
49223;SDS011;35050;51.316;5.994;2024-03-02T07:14:23;1.55;;;0.40;;
49223;SDS011;35050;51.316;5.994;2024-03-02T07:17:09;1.83;;;0.63;;
49223;SDS011;35050;51.316;5.994;2024-03-02T07:19:37;2.40;;;0.60;;
49223;SDS011;35050;51.316;5.994;2024-03-02T07:22:06;1.25;;;0.50;;
49223;SDS011;35050;51.316;5.994;2024-03-02T07:24:38;2.50;;;0.60;;
49223;SDS011;35050;51.316;5.994;2024-03-02T07:27:07;1.63;;;0.60;;
49223;SDS011;35050;51.316;5.994;2024-03-02T07:29:34;3.35;;;0.60;;
49223;SDS011;35050;51.316;5.994;2024-03-02T07:31:59;1.02;;;0.57;;
49223;SDS011;35050;51.316;5.994;2024-03-02T07:34:25;1.15;;;0.40;;
49223;SDS011;35050;51.316;5.994;2024-03-02T07:36:50;2.53;;;1.13;;
49223;SDS011;35050;51.316;5.994;2024-03-02T07:39:20;1.13;;;0.30;;
49223;SDS011;35050;51.316;5.994;2024-03-02T07:41:49;1.73;;;0.50;;
49223;SDS011;35050;51.316;5.994;2024-03-02T07:44:14;0.80;;;0.30;;
49223;SDS011;35050;51.316;5.994;2024-03-02T07:46:44;1.95;;;0.65;;
49223;SDS011;35050;51.316;5.994;2024-03-02T07:49:17;2.30;;;0.52;;
49223;SDS011;35050;51.316;5.994;2024-03-02T07:51:43;4.15;;;0.75;;
49223;SDS011;35050;51.316;5.994;2024-03-02T07:54:09;2.25;;;0.70;;
49223;SDS011;35050;51.316;5.994;2024-03-02T07:56:40;4.78;;;0.50;;
49223;SDS011;35050;51.316;5.994;2024-03-02T07:59:15;2.75;;;0.50;;
49223;SDS011;35050;51.316;5.994;2024-03-02T08:01:43;0.75;;;0.40;;
49223;SDS011;35050;51.316;5.994;2024-03-02T08:04:09;2.13;;;0.40;;
49223;SDS011;35050;51.316;5.994;2024-03-02T08:06:34;1.05;;;0.50;;
49223;SDS011;35050;51.316;5.994;2024-03-02T08:09:00;1.75;;;0.30;;
49223;SDS011;35050;51.316;5.994;2024-03-02T08:11:26;1.88;;;0.75;;
49223;SDS011;35050;51.316;5.994;2024-03-02T08:13:52;1.98;;;0.60;;
49223;SDS011;35050;51.316;5.994;2024-03-02T08:16:20;2.00;;;0.70;;
49223;SDS011;35050;51.316;5.994;2024-03-02T08:18:49;4.32;;;0.88;;
49223;SDS011;35050;51.316;5.994;2024-03-02T08:21:15;1.73;;;0.40;;
49223;SDS011;35050;51.316;5.994;2024-03-02T08:23:41;1.55;;;0.50;;
49223;SDS011;35050;51.316;5.994;2024-03-02T08:26:10;3.28;;;0.55;;
49223;SDS011;35050;51.316;5.994;2024-03-02T08:28:36;2.33;;;0.50;;
49223;SDS011;35050;51.316;5.994;2024-03-02T08:31:05;2.08;;;0.55;;
49223;SDS011;35050;51.316;5.994;2024-03-02T08:33:31;4.13;;;0.50;;
49223;SDS011;35050;51.316;5.994;2024-03-02T08:35:57;2.83;;;0.65;;
49223;SDS011;35050;51.316;5.994;2024-03-02T08:38:23;1.48;;;0.50;;
49223;SDS011;35050;51.316;5.994;2024-03-02T08:40:49;1.15;;;0.65;;
49223;SDS011;35050;51.316;5.994;2024-03-02T08:43:21;2.28;;;0.57;;
49223;SDS011;35050;51.316;5.994;2024-03-02T08:45:47;2.58;;;0.60;;
49223;SDS011;35050;51.316;5.994;2024-03-02T08:48:15;4.28;;;0.63;;
49223;SDS011;35050;51.316;5.994;2024-03-02T08:50:41;2.72;;;0.50;;
49223;SDS011;35050;51.316;5.994;2024-03-02T08:53:07;3.53;;;0.90;;
49223;SDS011;35050;51.316;5.994;2024-03-02T08:55:32;3.40;;;0.70;;
49223;SDS011;35050;51.316;5.994;2024-03-02T08:57:58;1.98;;;0.55;;
49223;SDS011;35050;51.316;5.994;2024-03-02T09:00:27;6.15;;;1.58;;
49223;SDS011;35050;51.316;5.994;2024-03-02T09:02:52;1.67;;;0.68;;
49223;SDS011;35050;51.316;5.994;2024-03-02T09:05:18;3.00;;;1.00;;
49223;SDS011;35050;51.316;5.994;2024-03-02T09:07:44;2.47;;;0.68;;
49223;SDS011;35050;51.316;5.994;2024-03-02T09:10:13;2.20;;;0.80;;
49223;SDS011;35050;51.316;5.994;2024-03-02T09:12:38;2.03;;;0.70;;
49223;SDS011;35050;51.316;5.994;2024-03-02T09:15:04;2.17;;;0.80;;
49223;SDS011;35050;51.316;5.994;2024-03-02T09:17:33;2.25;;;0.70;;
49223;SDS011;35050;51.316;5.994;2024-03-02T09:19:59;2.28;;;0.70;;
49223;SDS011;35050;51.316;5.994;2024-03-02T09:22:25;3.22;;;0.80;;
49223;SDS011;35050;51.316;5.994;2024-03-02T09:24:50;1.65;;;0.80;;
49223;SDS011;35050;51.316;5.994;2024-03-02T09:27:16;2.00;;;0.50;;
49223;SDS011;35050;51.316;5.994;2024-03-02T09:29:44;1.85;;;0.90;;
49223;SDS011;35050;51.316;5.994;2024-03-02T09:32:12;2.88;;;0.60;;
49223;SDS011;35050;51.316;5.994;2024-03-02T09:34:39;3.17;;;0.60;;
49223;SDS011;35050;51.316;5.994;2024-03-02T09:37:05;2.28;;;0.70;;
49223;SDS011;35050;51.316;5.994;2024-03-02T09:39:31;3.78;;;0.70;;
49223;SDS011;35050;51.316;5.994;2024-03-02T09:41:59;2.65;;;0.63;;
49223;SDS011;35050;51.316;5.994;2024-03-02T09:44:29;1.77;;;0.80;;
49223;SDS011;35050;51.316;5.994;2024-03-02T09:46:55;2.28;;;0.82;;
49223;SDS011;35050;51.316;5.994;2024-03-02T09:49:20;2.95;;;0.60;;
49223;SDS011;35050;51.316;5.994;2024-03-02T09:51:48;3.10;;;1.02;;
49223;SDS011;35050;51.316;5.994;2024-03-02T09:54:17;2.78;;;0.68;;
49223;SDS011;35050;51.316;5.994;2024-03-02T09:56:46;2.03;;;0.70;;
49223;SDS011;35050;51.316;5.994;2024-03-02T09:59:11;5.22;;;1.00;;
49223;SDS011;35050;51.316;5.994;2024-03-02T10:01:38;2.22;;;0.70;;
49223;SDS011;35050;51.316;5.994;2024-03-02T10:04:25;4.30;;;0.90;;
49223;SDS011;35050;51.316;5.994;2024-03-02T10:06:51;1.02;;;0.50;;
49223;SDS011;35050;51.316;5.994;2024-03-02T10:09:26;4.45;;;1.00;;
49223;SDS011;35050;51.316;5.994;2024-03-02T10:12:03;2.58;;;0.65;;
49223;SDS011;35050;51.316;5.994;2024-03-02T10:14:30;3.17;;;0.63;;
49223;SDS011;35050;51.316;5.994;2024-03-02T10:17:01;2.40;;;0.50;;
49223;SDS011;35050;51.316;5.994;2024-03-02T10:19:28;3.95;;;0.75;;
49223;SDS011;35050;51.316;5.994;2024-03-02T10:21:58;3.30;;;0.88;;
49223;SDS011;35050;51.316;5.994;2024-03-02T10:24:24;1.35;;;0.52;;
49223;SDS011;35050;51.316;5.994;2024-03-02T10:26:50;2.67;;;0.73;;
49223;SDS011;35050;51.316;5.994;2024-03-02T10:29:21;3.65;;;0.65;;
49223;SDS011;35050;51.316;5.994;2024-03-02T10:31:47;4.40;;;0.95;;
49223;SDS011;35050;51.316;5.994;2024-03-02T10:34:12;3.83;;;0.75;;
49223;SDS011;35050;51.316;5.994;2024-03-02T10:36:43;1.55;;;0.70;;
49223;SDS011;35050;51.316;5.994;2024-03-02T10:39:10;0.85;;;0.57;;
49223;SDS011;35050;51.316;5.994;2024-03-02T10:41:38;1.80;;;0.68;;
49223;SDS011;35050;51.316;5.994;2024-03-02T10:44:05;1.10;;;0.60;;
49223;SDS011;35050;51.316;5.994;2024-03-02T10:46:35;2.00;;;0.70;;
49223;SDS011;35050;51.316;5.994;2024-03-02T10:49:02;1.75;;;0.68;;
49223;SDS011;35050;51.316;5.994;2024-03-02T10:51:29;2.10;;;1.00;;
49223;SDS011;35050;51.316;5.994;2024-03-02T10:54:02;2.83;;;1.10;;
49223;SDS011;35050;51.316;5.994;2024-03-02T10:56:38;6.25;;;1.83;;
49223;SDS011;35050;51.316;5.994;2024-03-02T10:59:17;2.97;;;1.55;;
49223;SDS011;35050;51.316;5.994;2024-03-02T11:01:45;3.80;;;1.42;;
49223;SDS011;35050;51.316;5.994;2024-03-02T11:04:12;2.20;;;1.10;;
49223;SDS011;35050;51.316;5.994;2024-03-02T11:06:40;2.17;;;0.90;;
49223;SDS011;35050;51.316;5.994;2024-03-02T11:09:16;2.90;;;0.88;;
49223;SDS011;35050;51.316;5.994;2024-03-02T11:11:47;2.42;;;1.10;;
49223;SDS011;35050;51.316;5.994;2024-03-02T11:14:21;2.95;;;1.00;;
49223;SDS011;35050;51.316;5.994;2024-03-02T11:16:50;2.20;;;0.70;;
49223;SDS011;35050;51.316;5.994;2024-03-02T11:19:19;4.50;;;1.05;;
49223;SDS011;35050;51.316;5.994;2024-03-02T11:21:46;2.28;;;0.70;;
49223;SDS011;35050;51.316;5.994;2024-03-02T11:26:53;1.52;;;0.47;;
49223;SDS011;35050;51.316;5.994;2024-03-02T11:32:06;2.58;;;0.82;;
49223;SDS011;35050;51.316;5.994;2024-03-02T11:34:42;2.53;;;0.85;;
49223;SDS011;35050;51.316;5.994;2024-03-02T11:37:10;1.50;;;0.60;;
49223;SDS011;35050;51.316;5.994;2024-03-02T11:39:37;6.03;;;1.33;;
49223;SDS011;35050;51.316;5.994;2024-03-02T11:42:05;1.92;;;0.70;;
49223;SDS011;35050;51.316;5.994;2024-03-02T11:44:33;4.57;;;1.05;;
49223;SDS011;35050;51.316;5.994;2024-03-02T11:47:00;1.42;;;0.70;;
49223;SDS011;35050;51.316;5.994;2024-03-02T11:52:11;1.88;;;0.90;;
49223;SDS011;35050;51.316;5.994;2024-03-02T11:54:38;2.22;;;0.88;;
49223;SDS011;35050;51.316;5.994;2024-03-02T11:57:06;1.83;;;0.73;;
49223;SDS011;35050;51.316;5.994;2024-03-02T11:59:35;2.58;;;0.80;;
49223;SDS011;35050;51.316;5.994;2024-03-02T12:02:01;4.10;;;1.10;;
49223;SDS011;35050;51.316;5.994;2024-03-02T12:04:27;3.30;;;0.90;;
49223;SDS011;35050;51.316;5.994;2024-03-02T12:06:55;3.25;;;0.90;;
49223;SDS011;35050;51.316;5.994;2024-03-02T12:09:22;1.10;;;0.60;;
49223;SDS011;35050;51.316;5.994;2024-03-02T12:11:50;2.72;;;0.85;;
49223;SDS011;35050;51.316;5.994;2024-03-02T12:14:26;2.35;;;1.05;;
49223;SDS011;35050;51.316;5.994;2024-03-02T12:16:53;3.78;;;1.42;;
49223;SDS011;35050;51.316;5.994;2024-03-02T12:19:20;2.63;;;0.88;;
49223;SDS011;35050;51.316;5.994;2024-03-02T12:21:46;3.75;;;1.15;;
49223;SDS011;35050;51.316;5.994;2024-03-02T12:24:12;2.88;;;0.82;;
49223;SDS011;35050;51.316;5.994;2024-03-02T12:26:38;1.63;;;0.90;;
49223;SDS011;35050;51.316;5.994;2024-03-02T12:29:04;2.55;;;1.17;;
49223;SDS011;35050;51.316;5.994;2024-03-02T12:31:30;1.63;;;0.90;;
49223;SDS011;35050;51.316;5.994;2024-03-02T12:33:56;3.78;;;0.63;;
49223;SDS011;35050;51.316;5.994;2024-03-02T12:36:22;2.17;;;0.80;;
49223;SDS011;35050;51.316;5.994;2024-03-02T12:38:47;1.88;;;0.82;;
49223;SDS011;35050;51.316;5.994;2024-03-02T12:41:16;2.00;;;0.52;;
49223;SDS011;35050;51.316;5.994;2024-03-02T12:43:44;2.47;;;0.82;;
49223;SDS011;35050;51.316;5.994;2024-03-02T12:46:15;1.92;;;0.60;;
49223;SDS011;35050;51.316;5.994;2024-03-02T12:48:41;4.75;;;1.20;;
49223;SDS011;35050;51.316;5.994;2024-03-02T12:51:07;1.65;;;0.90;;
49223;SDS011;35050;51.316;5.994;2024-03-02T12:53:33;1.50;;;0.70;;
49223;SDS011;35050;51.316;5.994;2024-03-02T12:55:58;2.22;;;0.90;;
49223;SDS011;35050;51.316;5.994;2024-03-02T12:58:24;3.00;;;1.00;;
49223;SDS011;35050;51.316;5.994;2024-03-02T13:01:04;4.57;;;0.75;;
49223;SDS011;35050;51.316;5.994;2024-03-02T13:03:31;2.42;;;0.80;;
49223;SDS011;35050;51.316;5.994;2024-03-02T13:05:59;1.38;;;0.57;;
49223;SDS011;35050;51.316;5.994;2024-03-02T13:08:25;1.35;;;0.65;;
49223;SDS011;35050;51.316;5.994;2024-03-02T13:10:51;2.90;;;1.15;;
49223;SDS011;35050;51.316;5.994;2024-03-02T13:13:16;1.85;;;0.77;;
49223;SDS011;35050;51.316;5.994;2024-03-02T13:15:42;2.65;;;0.80;;
49223;SDS011;35050;51.316;5.994;2024-03-02T13:18:09;3.45;;;0.80;;
49223;SDS011;35050;51.316;5.994;2024-03-02T13:20:35;2.88;;;0.82;;
49223;SDS011;35050;51.316;5.994;2024-03-02T13:23:01;2.65;;;0.75;;
49223;SDS011;35050;51.316;5.994;2024-03-02T13:25:26;1.05;;;0.60;;
49223;SDS011;35050;51.316;5.994;2024-03-02T13:27:55;1.90;;;0.80;;
49223;SDS011;35050;51.316;5.994;2024-03-02T13:30:21;1.75;;;0.70;;
49223;SDS011;35050;51.316;5.994;2024-03-02T13:32:46;1.45;;;0.70;;
49223;SDS011;35050;51.316;5.994;2024-03-02T13:35:12;3.20;;;0.63;;
49223;SDS011;35050;51.316;5.994;2024-03-02T13:37:40;2.30;;;0.70;;
49223;SDS011;35050;51.316;5.994;2024-03-02T13:40:05;1.13;;;0.60;;
49223;SDS011;35050;51.316;5.994;2024-03-02T13:42:46;1.17;;;0.70;;
49223;SDS011;35050;51.316;5.994;2024-03-02T13:45:14;1.73;;;0.68;;
49223;SDS011;35050;51.316;5.994;2024-03-02T13:47:40;1.27;;;0.70;;
49223;SDS011;35050;51.316;5.994;2024-03-02T13:50:07;1.52;;;0.80;;
49223;SDS011;35050;51.316;5.994;2024-03-02T13:52:32;1.42;;;0.60;;
49223;SDS011;35050;51.316;5.994;2024-03-02T13:55:01;2.05;;;0.65;;
49223;SDS011;35050;51.316;5.994;2024-03-02T13:57:29;1.77;;;0.75;;
49223;SDS011;35050;51.316;5.994;2024-03-02T13:59:55;2.42;;;0.70;;
49223;SDS011;35050;51.316;5.994;2024-03-02T14:02:21;1.38;;;0.70;;
49223;SDS011;35050;51.316;5.994;2024-03-02T14:04:48;1.63;;;0.60;;
49223;SDS011;35050;51.316;5.994;2024-03-02T14:07:15;2.05;;;0.75;;
49223;SDS011;35050;51.316;5.994;2024-03-02T14:09:40;1.48;;;0.60;;
49223;SDS011;35050;51.316;5.994;2024-03-02T14:12:06;1.85;;;0.50;;
49223;SDS011;35050;51.316;5.994;2024-03-02T14:14:32;1.23;;;0.60;;
49223;SDS011;35050;51.316;5.994;2024-03-02T14:17:00;2.83;;;0.65;;
49223;SDS011;35050;51.316;5.994;2024-03-02T14:19:31;0.95;;;0.50;;
49223;SDS011;35050;51.316;5.994;2024-03-02T14:21:57;0.82;;;0.60;;
49223;SDS011;35050;51.316;5.994;2024-03-02T14:24:23;3.22;;;0.60;;
49223;SDS011;35050;51.316;5.994;2024-03-02T14:26:51;1.85;;;0.80;;
49223;SDS011;35050;51.316;5.994;2024-03-02T14:29:17;0.60;;;0.50;;
49223;SDS011;35050;51.316;5.994;2024-03-02T14:31:43;3.00;;;0.73;;
49223;SDS011;35050;51.316;5.994;2024-03-02T14:34:09;1.83;;;0.70;;
49223;SDS011;35050;51.316;5.994;2024-03-02T14:36:34;2.75;;;0.90;;
49223;SDS011;35050;51.316;5.994;2024-03-02T14:39:00;0.70;;;0.50;;
49223;SDS011;35050;51.316;5.994;2024-03-02T14:41:29;1.35;;;0.60;;
49223;SDS011;35050;51.316;5.994;2024-03-02T14:43:54;1.77;;;0.60;;
49223;SDS011;35050;51.316;5.994;2024-03-02T14:46:20;1.55;;;0.50;;
49223;SDS011;35050;51.316;5.994;2024-03-02T14:48:46;2.47;;;0.50;;
49223;SDS011;35050;51.316;5.994;2024-03-02T14:51:14;1.10;;;0.57;;
49223;SDS011;35050;51.316;5.994;2024-03-02T14:53:40;1.20;;;0.60;;
49223;SDS011;35050;51.316;5.994;2024-03-02T14:56:05;1.55;;;0.60;;
49223;SDS011;35050;51.316;5.994;2024-03-02T14:58:31;1.83;;;0.80;;
49223;SDS011;35050;51.316;5.994;2024-03-02T15:00:57;0.82;;;0.60;;
49223;SDS011;35050;51.316;5.994;2024-03-02T15:03:23;1.40;;;0.70;;
49223;SDS011;35050;51.316;5.994;2024-03-02T15:05:48;3.25;;;0.80;;
49223;SDS011;35050;51.316;5.994;2024-03-02T15:08:16;0.90;;;0.45;;